Time;durP1;ratioP1;P1;durP2;ratioP2;P2;SDS_P1;SDS_P2;PMS_P1;PMS_P2;Temp;Humidity;BMP_temperature;BMP_pressure;BME280_temperature;BME280_humidity;BME280_pressure;Samples;Min_cycle;Max_cycle;Signal;HPM_P1;HPM_P2
2024/01/20 00:01:55;;;;;;;4.88;4.68;;;;;;;;;;4981483;28;20046;-82
2024/01/20 00:04:20;;;;;;;4.90;4.70;;;;;;;;;;4968566;28;20068;-82
2024/01/20 00:06:46;;;;;;;4.60;4.40;;;;;;;;;;4982435;28;20057;-82
2024/01/20 00:09:11;;;;;;;4.93;4.72;;;;;;;;;;4982978;28;20656;-82
2024/01/20 00:11:40;;;;;;;5.00;4.80;;;;;;;;;;4949932;28;20543;-82
2024/01/20 00:14:05;;;;;;;5.00;4.80;;;;;;;;;;4953888;28;20544;-82
2024/01/20 00:16:31;;;;;;;4.68;4.47;;;;;;;;;;4983162;28;20034;-82
2024/01/20 00:18:57;;;;;;;4.80;4.60;;;;;;;;;;4966417;28;20512;-81
2024/01/20 00:21:23;;;;;;;4.82;4.63;;;;;;;;;;4962087;28;20554;-82
2024/01/20 00:23:49;;;;;;;4.70;4.50;;;;;;;;;;4986635;28;20033;-82
2024/01/20 00:26:14;;;;;;;4.90;4.70;;;;;;;;;;4981531;28;20504;-82
2024/01/20 00:28:40;;;;;;;4.80;4.60;;;;;;;;;;4981283;28;20578;-82
2024/01/20 00:31:06;;;;;;;4.90;4.70;;;;;;;;;;4981916;28;20042;-82
2024/01/20 00:33:32;;;;;;;4.70;4.50;;;;;;;;;;4983199;28;20038;-81
2024/01/20 00:35:57;;;;;;;4.70;4.50;;;;;;;;;;4968410;28;20054;-81
2024/01/20 00:38:25;;;;;;;4.80;4.60;;;;;;;;;;4947077;28;20856;-82
2024/01/20 00:40:51;;;;;;;4.70;4.50;;;;;;;;;;4978586;28;20088;-81
2024/01/20 00:43:16;;;;;;;4.88;4.68;;;;;;;;;;4982198;28;20050;-81
2024/01/20 00:45:42;;;;;;;4.70;4.50;;;;;;;;;;4991988;28;20041;-82
2024/01/20 00:48:08;;;;;;;8.38;7.90;;;;;;;;;;4965747;28;20049;-82
2024/01/20 00:50:33;;;;;;;4.85;4.65;;;;;;;;;;4964520;28;20042;-82
2024/01/20 00:52:59;;;;;;;5.10;4.90;;;;;;;;;;4950303;28;20052;-82
2024/01/20 00:55:25;;;;;;;4.93;4.72;;;;;;;;;;4952647;28;20620;-82
2024/01/20 00:57:51;;;;;;;4.90;4.70;;;;;;;;;;4965948;28;20038;-82
2024/01/20 01:00:17;;;;;;;5.00;4.80;;;;;;;;;;4982124;28;20034;-82
2024/01/20 01:02:42;;;;;;;4.70;4.50;;;;;;;;;;4997551;28;20108;-82
2024/01/20 01:05:08;;;;;;;4.80;4.60;;;;;;;;;;4994417;28;20037;-81
2024/01/20 01:07:35;;;;;;;4.70;4.50;;;;;;;;;;4981088;28;20104;-82
2024/01/20 01:10:01;;;;;;;4.78;4.57;;;;;;;;;;4949461;28;20042;-82
2024/01/20 01:12:27;;;;;;;4.85;4.65;;;;;;;;;;4982811;28;20046;-81
2024/01/20 01:14:52;;;;;;;5.13;4.93;;;;;;;;;;4972074;28;20121;-82
2024/01/20 01:17:19;;;;;;;5.40;5.20;;;;;;;;;;4967820;28;20271;-82
2024/01/20 01:19:44;;;;;;;4.75;4.55;;;;;;;;;;4964679;28;20496;-81
2024/01/20 01:22:10;;;;;;;4.75;4.55;;;;;;;;;;4949434;28;20173;-82
2024/01/20 01:24:37;;;;;;;4.85;4.65;;;;;;;;;;4967644;28;20093;-82
2024/01/20 01:27:04;;;;;;;4.57;4.38;;;;;;;;;;4989774;28;20043;-82
2024/01/20 01:29:29;;;;;;;4.90;4.70;;;;;;;;;;4980571;28;20042;-82
2024/01/20 01:31:55;;;;;;;4.55;4.35;;;;;;;;;;4981324;28;20053;-81
2024/01/20 01:34:21;;;;;;;4.78;4.57;;;;;;;;;;4967338;28;20154;-82
2024/01/20 01:36:46;;;;;;;4.60;4.40;;;;;;;;;;4965303;28;20073;-81
2024/01/20 01:39:12;;;;;;;4.40;4.20;;;;;;;;;;4952395;28;20034;-81
2024/01/20 01:41:37;;;;;;;4.60;4.40;;;;;;;;;;4980639;28;20616;-82
2024/01/20 01:44:03;;;;;;;4.85;4.65;;;;;;;;;;4965307;28;20107;-82
2024/01/20 01:46:30;;;;;;;4.68;4.47;;;;;;;;;;4980777;28;20042;-82
2024/01/20 01:48:56;;;;;;;4.43;4.22;;;;;;;;;;4956451;28;20085;-81
2024/01/20 01:51:22;;;;;;;4.40;4.20;;;;;;;;;;4988693;28;20128;-82
2024/01/20 01:53:48;;;;;;;4.47;4.28;;;;;;;;;;4972863;28;20121;-81
2024/01/20 01:56:14;;;;;;;4.50;4.30;;;;;;;;;;4975957;28;20042;-81
2024/01/20 01:58:42;;;;;;;4.45;4.25;;;;;;;;;;4963211;28;20038;-82
2024/01/20 02:01:07;;;;;;;4.72;4.53;;;;;;;;;;4985431;28;20042;-82
2024/01/20 02:03:33;;;;;;;4.70;4.50;;;;;;;;;;4980710;28;20038;-82
2024/01/20 02:05:59;;;;;;;7.65;7.25;;;;;;;;;;4985380;28;20504;-83
2024/01/20 02:08:25;;;;;;;4.78;4.57;;;;;;;;;;4951433;28;20065;-82
2024/01/20 02:10:51;;;;;;;4.65;4.45;;;;;;;;;;4981509;28;20562;-82
2024/01/20 02:13:18;;;;;;;4.70;4.50;;;;;;;;;;4994017;28;20056;-83
2024/01/20 02:15:45;;;;;;;4.80;4.60;;;;;;;;;;4986997;28;20049;-83
2024/01/20 02:18:11;;;;;;;4.70;4.50;;;;;;;;;;4968056;28;20034;-82
2024/01/20 02:20:36;;;;;;;4.90;4.70;;;;;;;;;;4983911;28;20034;-82
2024/01/20 02:23:02;;;;;;;4.70;4.50;;;;;;;;;;4958402;28;20128;-83
2024/01/20 02:25:28;;;;;;;4.55;4.35;;;;;;;;;;4967644;28;20042;-82
2024/01/20 02:27:53;;;;;;;4.50;4.30;;;;;;;;;;4972800;28;20099;-82
2024/01/20 02:30:19;;;;;;;4.70;4.50;;;;;;;;;;4988022;28;20057;-82
2024/01/20 02:32:44;;;;;;;4.57;4.38;;;;;;;;;;4951592;28;20802;-82
2024/01/20 02:35:10;;;;;;;4.50;4.30;;;;;;;;;;4997210;28;20043;-82
2024/01/20 02:37:36;;;;;;;4.70;4.50;;;;;;;;;;4969786;28;20046;-82
2024/01/20 02:40:02;;;;;;;4.80;4.60;;;;;;;;;;4970957;28;20042;-82
2024/01/20 02:42:28;;;;;;;4.57;4.38;;;;;;;;;;4986816;28;20038;-83
2024/01/20 02:44:53;;;;;;;4.50;4.30;;;;;;;;;;4967547;28;20104;-82
2024/01/20 02:47:19;;;;;;;4.40;4.20;;;;;;;;;;4951220;28;20525;-82
2024/01/20 02:49:45;;;;;;;4.80;4.60;;;;;;;;;;4970672;28;20035;-82
2024/01/20 02:52:10;;;;;;;4.70;4.50;;;;;;;;;;4987658;28;20762;-82
2024/01/20 02:54:36;;;;;;;4.60;4.40;;;;;;;;;;4978710;28;20145;-81
2024/01/20 02:57:01;;;;;;;4.60;4.40;;;;;;;;;;4967691;28;20081;-80
2024/01/20 02:59:27;;;;;;;4.70;4.50;;;;;;;;;;4965728;28;20038;-82
2024/01/20 03:01:53;;;;;;;4.70;4.50;;;;;;;;;;4987125;28;20041;-82
2024/01/20 03:04:18;;;;;;;4.63;4.43;;;;;;;;;;4967017;28;20053;-82
2024/01/20 03:06:44;;;;;;;4.70;4.50;;;;;;;;;;4978187;28;20499;-82
2024/01/20 03:09:14;;;;;;;4.47;4.28;;;;;;;;;;4983228;28;20116;-82
2024/01/20 03:11:43;;;;;;;4.50;4.30;;;;;;;;;;4998785;28;20040;-82
2024/01/20 03:14:10;;;;;;;4.50;4.30;;;;;;;;;;4950515;28;20042;-82
2024/01/20 03:16:35;;;;;;;4.65;4.45;;;;;;;;;;4983360;28;20133;-82
2024/01/20 03:19:01;;;;;;;4.43;4.22;;;;;;;;;;4997461;28;20121;-82
2024/01/20 03:21:26;;;;;;;5.05;4.85;;;;;;;;;;4962766;28;20763;-82
2024/01/20 03:23:53;;;;;;;4.35;4.15;;;;;;;;;;4974453;28;20042;-82
2024/01/20 03:26:19;;;;;;;4.50;4.30;;;;;;;;;;4963206;28;20050;-82
2024/01/20 03:28:45;;;;;;;4.57;4.38;;;;;;;;;;4997781;28;20053;-82
2024/01/20 03:31:10;;;;;;;4.30;4.10;;;;;;;;;;4964056;28;20149;-82
2024/01/20 03:33:36;;;;;;;4.50;4.30;;;;;;;;;;4981831;28;20046;-82
2024/01/20 03:36:02;;;;;;;4.43;4.22;;;;;;;;;;4950277;28;20073;-82
2024/01/20 03:38:27;;;;;;;4.40;4.20;;;;;;;;;;4981123;28;20585;-82
2024/01/20 03:40:53;;;;;;;4.50;4.30;;;;;;;;;;4977501;28;20057;-83
2024/01/20 03:43:18;;;;;;;4.60;4.40;;;;;;;;;;4982554;28;20050;-82
2024/01/20 03:45:44;;;;;;;4.40;4.20;;;;;;;;;;4965128;28;20081;-82
2024/01/20 03:48:09;;;;;;;4.60;4.40;;;;;;;;;;4983584;28;20038;-83
2024/01/20 03:50:35;;;;;;;4.40;4.20;;;;;;;;;;4981931;28;20066;-82
2024/01/20 03:53:01;;;;;;;4.50;4.30;;;;;;;;;;4963873;28;20568;-82
2024/01/20 03:55:27;;;;;;;4.50;4.30;;;;;;;;;;4946756;28;20050;-82
2024/01/20 03:57:53;;;;;;;4.32;4.13;;;;;;;;;;4965847;28;20089;-83
2024/01/20 04:00:19;;;;;;;4.60;4.40;;;;;;;;;;4982054;28;20034;-83
2024/01/20 04:02:44;;;;;;;4.43;4.22;;;;;;;;;;4979661;28;20042;-82
2024/01/20 04:05:10;;;;;;;5.03;4.82;;;;;;;;;;4964201;28;20527;-82
2024/01/20 04:07:37;;;;;;;4.47;4.28;;;;;;;;;;4979801;28;20030;-83
2024/01/20 04:10:03;;;;;;;4.57;4.38;;;;;;;;;;4962378;28;20679;-82
2024/01/20 04:12:29;;;;;;;4.68;4.47;;;;;;;;;;4980130;28;20049;-82
2024/01/20 04:14:55;;;;;;;4.75;4.55;;;;;;;;;;4948515;28;20038;-82
2024/01/20 04:17:21;;;;;;;4.70;4.50;;;;;;;;;;4981299;28;20062;-82
2024/01/20 04:19:47;;;;;;;4.60;4.40;;;;;;;;;;4962927;28;20030;-82
2024/01/20 04:22:13;;;;;;;4.60;4.40;;;;;;;;;;4976934;28;20046;-83
2024/01/20 04:24:38;;;;;;;4.90;4.70;;;;;;;;;;4979952;28;20042;-82
2024/01/20 04:27:04;;;;;;;4.70;4.50;;;;;;;;;;4979407;28;20042;-82
2024/01/20 04:29:30;;;;;;;4.75;4.55;;;;;;;;;;4995756;28;20088;-82
2024/01/20 04:31:56;;;;;;;4.68;4.47;;;;;;;;;;4964596;28;20248;-82
2024/01/20 04:34:21;;;;;;;4.53;4.32;;;;;;;;;;4981052;28;20457;-82
2024/01/20 04:36:47;;;;;;;4.60;4.40;;;;;;;;;;4962947;28;20038;-82
2024/01/20 04:39:12;;;;;;;4.70;4.50;;;;;;;;;;4979291;28;20046;-82
2024/01/20 04:41:38;;;;;;;4.70;4.50;;;;;;;;;;4979879;28;20121;-82
2024/01/20 04:44:04;;;;;;;4.50;4.30;;;;;;;;;;4964773;28;20133;-82
2024/01/20 04:46:30;;;;;;;4.60;4.40;;;;;;;;;;4963316;28;20074;-81
2024/01/20 04:48:55;;;;;;;4.60;4.40;;;;;;;;;;4963942;28;20069;-82
2024/01/20 04:51:21;;;;;;;7.97;7.57;;;;;;;;;;4980111;28;20058;-82
2024/01/20 04:53:46;;;;;;;4.53;4.32;;;;;;;;;;4980461;28;20053;-82
2024/01/20 04:56:12;;;;;;;4.50;4.30;;;;;;;;;;4977938;28;20069;-82
2024/01/20 04:58:39;;;;;;;6.85;6.55;;;;;;;;;;4977701;28;20697;-82
2024/01/20 05:01:05;;;;;;;4.63;4.43;;;;;;;;;;5013051;28;20059;-83
2024/01/20 05:03:30;;;;;;;5.38;5.18;;;;;;;;;;4979003;28;20038;-82
2024/01/20 05:05:56;;;;;;;4.60;4.40;;;;;;;;;;4963502;28;20081;-82
2024/01/20 05:08:22;;;;;;;4.50;4.30;;;;;;;;;;4963584;28;20034;-83
2024/01/20 05:10:47;;;;;;;4.40;4.20;;;;;;;;;;4960988;28;20046;-82
2024/01/20 05:13:13;;;;;;;4.20;4.00;;;;;;;;;;4961886;28;20039;-83
2024/01/20 05:15:39;;;;;;;4.30;4.10;;;;;;;;;;4979123;28;20155;-82
2024/01/20 05:18:04;;;;;;;4.20;4.00;;;;;;;;;;4945786;28;20050;-82
2024/01/20 05:20:30;;;;;;;6.35;6.05;;;;;;;;;;4978597;28;20057;-82
2024/01/20 05:22:56;;;;;;;4.20;4.00;;;;;;;;;;4945625;28;20050;-82
2024/01/20 05:25:21;;;;;;;4.20;4.00;;;;;;;;;;4978739;28;20417;-82
2024/01/20 05:27:47;;;;;;;4.40;4.20;;;;;;;;;;4981805;28;20038;-82
2024/01/20 05:30:13;;;;;;;5.13;4.93;;;;;;;;;;5013384;28;20073;-82
2024/01/20 05:32:40;;;;;;;4.40;4.20;;;;;;;;;;4962787;28;20068;-82
2024/01/20 05:35:06;;;;;;;4.40;4.20;;;;;;;;;;4975901;28;20035;-81
2024/01/20 05:37:31;;;;;;;4.30;4.10;;;;;;;;;;4959337;28;20050;-82
2024/01/20 05:39:57;;;;;;;4.30;4.10;;;;;;;;;;4979218;28;20061;-82
2024/01/20 05:42:22;;;;;;;5.25;5.05;;;;;;;;;;4973499;28;20045;-81
2024/01/20 05:44:48;;;;;;;4.28;4.07;;;;;;;;;;4979269;28;20037;-82
2024/01/20 05:47:13;;;;;;;4.38;4.18;;;;;;;;;;4965374;28;20042;-81
2024/01/20 05:49:39;;;;;;;12.82;12.18;;;;;;;;;;4982334;28;20038;-82
2024/01/20 05:52:05;;;;;;;4.13;3.92;;;;;;;;;;4965906;28;20042;-82
2024/01/20 05:54:30;;;;;;;3.95;3.85;;;;;;;;;;4983206;28;20042;-81
2024/01/20 05:56:56;;;;;;;4.20;4.00;;;;;;;;;;4959487;28;20050;-82
2024/01/20 05:59:21;;;;;;;4.40;4.20;;;;;;;;;;4966185;28;20030;-82
2024/01/20 06:01:50;;;;;;;4.55;4.35;;;;;;;;;;4964408;28;20057;-82
2024/01/20 06:04:17;;;;;;;4.95;4.75;;;;;;;;;;4970405;28;20084;-81
2024/01/20 06:06:46;;;;;;;5.50;5.30;;;;;;;;;;4959651;28;20608;-82
2024/01/20 06:09:12;;;;;;;4.28;4.07;;;;;;;;;;4992976;28;20871;-82
2024/01/20 06:11:37;;;;;;;4.20;4.00;;;;;;;;;;4964783;28;20129;-82
2024/01/20 06:14:03;;;;;;;4.30;4.10;;;;;;;;;;4964553;28;20052;-82
2024/01/20 06:16:29;;;;;;;4.30;4.10;;;;;;;;;;4950531;28;20042;-82
2024/01/20 06:18:55;;;;;;;4.30;4.10;;;;;;;;;;4965088;28;20049;-81
2024/01/20 06:21:21;;;;;;;4.18;3.97;;;;;;;;;;4976268;28;20647;-82
2024/01/20 06:23:50;;;;;;;5.05;4.85;;;;;;;;;;4992024;28;20125;-81
2024/01/20 06:26:16;;;;;;;4.00;3.90;;;;;;;;;;4961970;28;20421;-81
2024/01/20 06:28:42;;;;;;;4.80;4.60;;;;;;;;;;4980381;28;20050;-82
2024/01/20 06:31:07;;;;;;;4.40;4.20;;;;;;;;;;4980967;28;20057;-88
2024/01/20 06:33:33;;;;;;;4.30;4.10;;;;;;;;;;4982964;28;20524;-88
2024/01/20 06:35:59;;;;;;;4.13;3.92;;;;;;;;;;4956618;28;20043;-88
2024/01/20 06:38:24;;;;;;;4.30;4.10;;;;;;;;;;4953171;28;20042;-87
2024/01/20 06:40:50;;;;;;;4.55;4.35;;;;;;;;;;4974768;28;20038;-88
2024/01/20 06:43:15;;;;;;;4.13;3.92;;;;;;;;;;4970217;28;20062;-87
2024/01/20 06:45:42;;;;;;;4.18;3.97;;;;;;;;;;5000009;28;20042;-87
2024/01/20 06:48:09;;;;;;;4.30;4.10;;;;;;;;;;4980597;28;20083;-87
2024/01/20 06:50:37;;;;;;;4.20;4.00;;;;;;;;;;4970242;28;20038;-88
2024/01/20 06:53:04;;;;;;;4.25;4.05;;;;;;;;;;4988432;28;20042;-88
2024/01/20 06:55:30;;;;;;;3.92;3.83;;;;;;;;;;4989007;28;20034;-87
2024/01/20 06:57:55;;;;;;;3.90;3.80;;;;;;;;;;5016522;28;20125;-87
2024/01/20 07:00:21;;;;;;;4.10;3.90;;;;;;;;;;4980907;28;20109;-87
2024/01/20 07:02:47;;;;;;;3.90;3.80;;;;;;;;;;4997247;28;20053;-87
2024/01/20 07:05:12;;;;;;;4.20;4.00;;;;;;;;;;4951734;28;20034;-86
2024/01/20 07:07:38;;;;;;;4.20;4.00;;;;;;;;;;4963181;28;20669;-88
2024/01/20 07:10:06;;;;;;;4.32;4.13;;;;;;;;;;4956225;28;20106;-87
2024/01/20 07:12:31;;;;;;;4.47;4.28;;;;;;;;;;4971013;28;20555;-89
2024/01/20 07:14:57;;;;;;;4.32;4.13;;;;;;;;;;4990525;28;20046;-88
2024/01/20 07:17:23;;;;;;;4.20;4.00;;;;;;;;;;4966456;28;20137;-87
2024/01/20 07:19:48;;;;;;;4.07;3.88;;;;;;;;;;4959818;28;20034;-87
2024/01/20 07:22:14;;;;;;;3.90;3.80;;;;;;;;;;4974786;28;20038;-87
2024/01/20 07:24:39;;;;;;;4.10;3.90;;;;;;;;;;4973423;28;20073;-89
2024/01/20 07:27:05;;;;;;;4.20;4.00;;;;;;;;;;4973527;28;20042;-87
2024/01/20 07:29:30;;;;;;;4.20;4.00;;;;;;;;;;4958115;28;20042;-89
2024/01/20 07:31:56;;;;;;;4.18;3.97;;;;;;;;;;4955679;28;20057;-88
2024/01/20 07:34:21;;;;;;;4.40;4.20;;;;;;;;;;4957823;28;20550;-89
2024/01/20 07:36:47;;;;;;;4.10;3.90;;;;;;;;;;4957342;28;20045;-88
2024/01/20 07:39:13;;;;;;;4.13;3.92;;;;;;;;;;4973271;28;20048;-88
2024/01/20 07:41:38;;;;;;;3.80;3.70;;;;;;;;;;4991828;28;20030;-87
2024/01/20 07:44:04;;;;;;;3.83;3.72;;;;;;;;;;4957872;28;20049;-88
2024/01/20 07:46:29;;;;;;;4.53;4.32;;;;;;;;;;4956841;28;20034;-88
2024/01/20 07:48:55;;;;;;;4.07;3.90;;;;;;;;;;4956629;28;20038;-88
2024/01/20 07:51:21;;;;;;;4.38;4.18;;;;;;;;;;4989054;28;20122;-88
2024/01/20 07:53:48;;;;;;;3.78;3.67;;;;;;;;;;4958245;28;20038;-87
2024/01/20 07:56:16;;;;;;;4.10;3.90;;;;;;;;;;4976703;28;20073;-88
2024/01/20 07:58:41;;;;;;;3.88;3.78;;;;;;;;;;4989662;28;20038;-88
2024/01/20 08:01:07;;;;;;;3.80;3.70;;;;;;;;;;4991520;28;20038;-87
2024/01/20 08:03:33;;;;;;;4.15;3.95;;;;;;;;;;4975355;28;20081;-89
2024/01/20 08:06:00;;;;;;;4.20;4.00;;;;;;;;;;4987063;28;20044;-88
2024/01/20 08:08:26;;;;;;;4.20;4.00;;;;;;;;;;4957115;28;20037;-89
2024/01/20 08:10:53;;;;;;;4.30;4.10;;;;;;;;;;4963237;28;20034;-88
2024/01/20 08:13:20;;;;;;;3.95;3.85;;;;;;;;;;4962063;28;20499;-89
2024/01/20 08:15:45;;;;;;;4.30;4.10;;;;;;;;;;4977530;28;20483;-89
2024/01/20 08:18:11;;;;;;;3.90;3.80;;;;;;;;;;4971493;28;20030;-88
2024/01/20 08:20:37;;;;;;;3.90;3.80;;;;;;;;;;4958008;28;20042;-90
2024/01/20 08:23:02;;;;;;;4.32;4.13;;;;;;;;;;4980483;28;20042;-89
2024/01/20 08:25:31;;;;;;;4.00;3.90;;;;;;;;;;4958441;28;20045;-90
2024/01/20 08:27:56;;;;;;;4.17;3.97;;;;;;;;;;4974754;28;20069;-89
2024/01/20 08:30:22;;;;;;;3.88;3.78;;;;;;;;;;4957606;28;20030;-90
2024/01/20 08:32:47;;;;;;;4.13;3.92;;;;;;;;;;4966671;28;20041;-89
2024/01/20 08:35:13;;;;;;;4.10;3.90;;;;;;;;;;5000157;28;20308;-89
2024/01/20 08:37:39;;;;;;;4.03;3.90;;;;;;;;;;4994779;28;20031;-89
2024/01/20 08:40:05;;;;;;;4.10;3.90;;;;;;;;;;4957060;28;20031;-89
2024/01/20 08:42:31;;;;;;;3.95;3.85;;;;;;;;;;4989342;28;20042;-89
2024/01/20 08:44:56;;;;;;;4.20;4.00;;;;;;;;;;4968285;28;20046;-88
2024/01/20 08:47:22;;;;;;;4.10;3.90;;;;;;;;;;4962077;28;20105;-89
2024/01/20 08:49:51;;;;;;;4.20;4.00;;;;;;;;;;4978778;28;20112;-89
2024/01/20 08:52:18;;;;;;;4.45;4.25;;;;;;;;;;4975109;28;20030;-89
2024/01/20 08:54:48;;;;;;;21.45;19.90;;;;;;;;;;4962399;28;20039;-89
2024/01/20 08:57:13;;;;;;;4.07;3.90;;;;;;;;;;4954417;28;20552;-89
2024/01/20 08:59:39;;;;;;;4.20;4.00;;;;;;;;;;4989565;28;20076;-90
2024/01/20 09:02:06;;;;;;;4.22;4.03;;;;;;;;;;4976384;28;20061;-89
2024/01/20 09:04:33;;;;;;;4.20;4.00;;;;;;;;;;4963632;28;20133;-89
2024/01/20 09:06:59;;;;;;;4.10;3.90;;;;;;;;;;4959367;28;20042;-89
2024/01/20 09:09:25;;;;;;;3.95;3.85;;;;;;;;;;4963083;28;20049;-89
2024/01/20 09:11:50;;;;;;;4.40;4.20;;;;;;;;;;4975410;28;20034;-89
2024/01/20 09:14:16;;;;;;;4.20;4.00;;;;;;;;;;4976469;28;20038;-89
2024/01/20 09:16:42;;;;;;;4.20;4.00;;;;;;;;;;4976312;28;20493;-89
2024/01/20 09:19:08;;;;;;;3.97;3.88;;;;;;;;;;4967920;28;20042;-89
2024/01/20 09:21:34;;;;;;;4.05;3.90;;;;;;;;;;4961297;28;20038;-89
2024/01/20 09:24:00;;;;;;;4.03;3.90;;;;;;;;;;4973585;28;20038;-89
2024/01/20 09:26:26;;;;;;;4.30;4.10;;;;;;;;;;4964727;28;20493;-89
2024/01/20 09:28:52;;;;;;;4.20;4.00;;;;;;;;;;4967058;28;20078;-89
2024/01/20 09:31:17;;;;;;;5.38;5.18;;;;;;;;;;4977136;28;20031;-88
2024/01/20 09:33:45;;;;;;;3.88;3.78;;;;;;;;;;4974255;28;20042;-89
2024/01/20 09:36:11;;;;;;;4.38;4.18;;;;;;;;;;4962836;28;20685;-89
2024/01/20 09:38:37;;;;;;;4.30;4.10;;;;;;;;;;4994695;28;20037;-89
2024/01/20 09:41:09;;;;;;;4.30;4.10;;;;;;;;;;4978738;28;20026;-89
2024/01/20 09:43:38;;;;;;;4.50;4.30;;;;;;;;;;4963322;28;20548;-89
2024/01/20 09:46:04;;;;;;;4.70;4.50;;;;;;;;;;4962650;28;20041;-89
2024/01/20 09:48:29;;;;;;;4.50;4.30;;;;;;;;;;4964260;28;20042;-88
2024/01/20 09:50:56;;;;;;;4.20;4.00;;;;;;;;;;4964613;28;20041;-89
2024/01/20 09:53:22;;;;;;;4.43;4.22;;;;;;;;;;4964734;28;20034;-89
2024/01/20 09:55:48;;;;;;;4.40;4.20;;;;;;;;;;4968984;28;20042;-89
2024/01/20 09:58:16;;;;;;;4.30;4.10;;;;;;;;;;4965430;28;20037;-89
2024/01/20 10:00:43;;;;;;;3.92;3.83;;;;;;;;;;4965353;28;20026;-89
2024/01/20 10:03:11;;;;;;;4.30;4.10;;;;;;;;;;4995958;28;20034;-90
2024/01/20 10:05:37;;;;;;;4.40;4.20;;;;;;;;;;5002060;28;20077;-90
2024/01/20 10:08:07;;;;;;;4.50;4.30;;;;;;;;;;4978288;28;20038;-89
2024/01/20 10:10:33;;;;;;;4.40;4.20;;;;;;;;;;4976259;28;20045;-89
2024/01/20 10:13:00;;;;;;;4.50;4.30;;;;;;;;;;5002440;28;20042;-88
2024/01/20 10:15:29;;;;;;;4.38;4.18;;;;;;;;;;4982730;28;20038;-88
2024/01/20 10:17:55;;;;;;;4.30;4.10;;;;;;;;;;4957824;28;20041;-88
2024/01/20 10:20:22;;;;;;;4.50;4.30;;;;;;;;;;4976792;28;20036;-89
2024/01/20 10:22:48;;;;;;;3.95;3.85;;;;;;;;;;4965104;28;20069;-89
2024/01/20 10:25:19;;;;;;;4.07;3.90;;;;;;;;;;4973154;28;20042;-88
2024/01/20 10:27:49;;;;;;;3.88;3.78;;;;;;;;;;5005000;28;20026;-86
2024/01/20 10:30:22;;;;;;;4.20;4.00;;;;;;;;;;4995065;28;20042;-87
2024/01/20 10:32:48;;;;;;;4.03;3.90;;;;;;;;;;5030434;28;20038;-88
2024/01/20 10:35:15;;;;;;;4.30;4.10;;;;;;;;;;5000247;28;20026;-89
2024/01/20 10:37:49;;;;;;;4.30;4.10;;;;;;;;;;5032629;28;20065;-89
2024/01/20 10:40:15;;;;;;;4.50;4.30;;;;;;;;;;4992064;28;20102;-89
2024/01/20 10:42:45;;;;;;;4.60;4.40;;;;;;;;;;4982944;28;20057;-89
2024/01/20 10:45:18;;;;;;;4.57;4.38;;;;;;;;;;4979636;28;20050;-89
2024/01/20 10:48:07;;;;;;;4.40;4.20;;;;;;;;;;4998413;28;20134;-89
2024/01/20 10:50:35;;;;;;;3.90;3.80;;;;;;;;;;4982347;28;20110;-90
2024/01/20 10:53:02;;;;;;;4.10;3.90;;;;;;;;;;5017380;28;20042;-89
2024/01/20 10:55:29;;;;;;;8.65;8.25;;;;;;;;;;4996959;28;20078;-89
2024/01/20 10:57:57;;;;;;;7.22;6.85;;;;;;;;;;4982560;28;20026;-88
2024/01/20 11:00:49;;;;;;;4.40;4.20;;;;;;;;;;5017927;28;20030;-89
2024/01/20 11:03:14;;;;;;;4.35;4.15;;;;;;;;;;5011932;28;20034;-89
2024/01/20 11:05:45;;;;;;;5.00;4.80;;;;;;;;;;5010926;28;20038;-88
2024/01/20 11:08:11;;;;;;;5.07;4.88;;;;;;;;;;5007336;28;20038;-89
2024/01/20 11:10:42;;;;;;;4.90;4.70;;;;;;;;;;4958399;28;20480;-88
2024/01/20 11:13:10;;;;;;;5.32;5.13;;;;;;;;;;4970607;28;20844;-88
2024/01/20 11:15:36;;;;;;;6.35;6.05;;;;;;;;;;4958204;28;20034;-88
2024/01/20 11:18:02;;;;;;;6.50;6.20;;;;;;;;;;4976163;28;20473;-89
2024/01/20 11:20:31;;;;;;;6.40;6.10;;;;;;;;;;4974193;28;20038;-88
2024/01/20 11:22:57;;;;;;;6.00;5.70;;;;;;;;;;4990161;28;20070;-88
2024/01/20 11:25:24;;;;;;;6.03;5.72;;;;;;;;;;4989819;28;20077;-89
2024/01/20 11:27:53;;;;;;;6.30;6.00;;;;;;;;;;4988697;28;20038;-88
2024/01/20 11:30:28;;;;;;;7.90;7.50;;;;;;;;;;4983455;28;20744;-89
2024/01/20 11:32:55;;;;;;;8.20;7.80;;;;;;;;;;4960522;28;20042;-89
2024/01/20 11:35:21;;;;;;;8.60;8.20;;;;;;;;;;4991120;28;20119;-89
2024/01/20 11:37:48;;;;;;;7.30;6.97;;;;;;;;;;4983058;28;20208;-90
2024/01/20 11:40:13;;;;;;;7.38;7.00;;;;;;;;;;4954647;28;20602;-89
2024/01/20 11:42:39;;;;;;;7.03;6.72;;;;;;;;;;4977363;28;20030;-89
2024/01/20 11:45:06;;;;;;;6.75;6.45;;;;;;;;;;4969424;28;20034;-89
2024/01/20 11:47:32;;;;;;;8.23;7.82;;;;;;;;;;4997542;28;20030;-90
2024/01/20 11:49:58;;;;;;;7.20;6.90;;;;;;;;;;4963601;28;20052;-90
2024/01/20 11:52:27;;;;;;;6.75;6.45;;;;;;;;;;4967765;28;20058;-90
2024/01/20 11:54:54;;;;;;;7.45;7.05;;;;;;;;;;4960481;28;20614;-90
2024/01/20 11:57:26;;;;;;;7.13;6.82;;;;;;;;;;4967841;28;20042;-90
2024/01/20 11:59:53;;;;;;;7.07;6.78;;;;;;;;;;4951104;28;20035;-89
2024/01/20 12:02:20;;;;;;;8.38;7.97;;;;;;;;;;4981129;28;20034;-90
2024/01/20 12:04:46;;;;;;;6.75;6.45;;;;;;;;;;4996534;28;20069;-90
2024/01/20 12:07:12;;;;;;;6.28;5.97;;;;;;;;;;4952245;28;20120;-89
2024/01/20 12:09:37;;;;;;;6.47;6.18;;;;;;;;;;4983236;28;20245;-90
2024/01/20 12:12:04;;;;;;;6.45;6.15;;;;;;;;;;4952999;28;20038;-90
2024/01/20 12:14:29;;;;;;;6.47;6.18;;;;;;;;;;4968934;28;20038;-90
2024/01/20 12:16:56;;;;;;;6.30;6.00;;;;;;;;;;4986097;28;20030;-90
2024/01/20 12:19:22;;;;;;;6.35;6.05;;;;;;;;;;4955714;28;20484;-89
2024/01/20 12:21:48;;;;;;;6.55;6.25;;;;;;;;;;4955033;28;20116;-90
2024/01/20 12:24:14;;;;;;;5.95;5.65;;;;;;;;;;4968457;28;20042;-89
2024/01/20 12:26:43;;;;;;;26.35;24.38;;;;;;;;;;4984979;28;20034;-89
2024/01/20 12:29:09;;;;;;;6.07;5.78;;;;;;;;;;4967511;28;20045;-90
2024/01/20 12:31:35;;;;;;;6.13;5.82;;;;;;;;;;4966614;28;20162;-89
2024/01/20 12:34:00;;;;;;;6.07;5.78;;;;;;;;;;4964544;28;20065;-89
2024/01/20 12:36:27;;;;;;;5.90;5.60;;;;;;;;;;4951008;28;20579;-90
2024/01/20 12:38:54;;;;;;;6.20;5.90;;;;;;;;;;4985934;28;20036;-90
2024/01/20 12:41:20;;;;;;;5.57;5.38;;;;;;;;;;4968928;28;20026;-89
2024/01/20 12:43:48;;;;;;;5.50;5.30;;;;;;;;;;4983707;28;20037;-89
2024/01/20 12:46:19;;;;;;;5.40;5.20;;;;;;;;;;5017603;28;20105;-88
2024/01/20 12:48:44;;;;;;;5.30;5.10;;;;;;;;;;4966351;28;20034;-89
2024/01/20 12:51:11;;;;;;;5.20;5.00;;;;;;;;;;4949525;28;20649;-88
2024/01/20 12:53:36;;;;;;;5.30;5.10;;;;;;;;;;4970396;28;20046;-88
2024/01/20 12:56:04;;;;;;;5.60;5.40;;;;;;;;;;4949030;28;20034;-89
2024/01/20 12:58:30;;;;;;;5.00;4.80;;;;;;;;;;4962617;28;20565;-90
2024/01/20 13:00:57;;;;;;;4.93;4.72;;;;;;;;;;4966926;28;20081;-89
2024/01/20 13:03:23;;;;;;;4.90;4.70;;;;;;;;;;4965843;28;20121;-89
2024/01/20 13:05:50;;;;;;;4.22;4.03;;;;;;;;;;4982909;28;20046;-89
2024/01/20 13:08:17;;;;;;;4.28;4.07;;;;;;;;;;4969616;28;20034;-89
2024/01/20 13:10:45;;;;;;;4.35;4.15;;;;;;;;;;4965562;28;20114;-88
2024/01/20 13:13:12;;;;;;;4.60;4.40;;;;;;;;;;4970627;28;20109;-90
2024/01/20 13:15:38;;;;;;;4.60;4.40;;;;;;;;;;4974646;28;20097;-89
2024/01/20 13:18:03;;;;;;;4.47;4.28;;;;;;;;;;4970509;28;20034;-90
2024/01/20 13:20:30;;;;;;;4.25;4.05;;;;;;;;;;4975767;28;20841;-90
2024/01/20 13:22:56;;;;;;;4.47;4.28;;;;;;;;;;4959073;28;20050;-89
2024/01/20 13:25:21;;;;;;;4.63;4.43;;;;;;;;;;4964432;28;20037;-88
2024/01/20 13:27:48;;;;;;;4.70;4.50;;;;;;;;;;4983426;28;20238;-89
2024/01/20 13:30:13;;;;;;;4.43;4.22;;;;;;;;;;4980146;28;20026;-88
2024/01/20 13:32:39;;;;;;;4.20;4.00;;;;;;;;;;4986714;28;20046;-89
2024/01/20 13:35:07;;;;;;;4.30;4.10;;;;;;;;;;4980783;28;20042;-89
2024/01/20 13:37:33;;;;;;;4.45;4.25;;;;;;;;;;4965892;28;20026;-89
2024/01/20 13:39:58;;;;;;;3.80;3.70;;;;;;;;;;4980195;28;20122;-89
2024/01/20 13:42:24;;;;;;;5.20;5.00;;;;;;;;;;4964195;28;20046;-89
2024/01/20 13:44:50;;;;;;;4.80;4.60;;;;;;;;;;4957546;28;20093;-88
2024/01/20 13:47:16;;;;;;;4.10;3.90;;;;;;;;;;4974068;28;20945;-88
2024/01/20 13:49:41;;;;;;;4.20;4.00;;;;;;;;;;4983055;28;20060;-88
2024/01/20 13:52:07;;;;;;;4.32;4.13;;;;;;;;;;4988865;28;20269;-88
2024/01/20 13:54:32;;;;;;;3.88;3.78;;;;;;;;;;4985842;28;20038;-88
2024/01/20 13:56:58;;;;;;;4.60;4.40;;;;;;;;;;4970659;28;20052;-89
2024/01/20 13:59:26;;;;;;;4.47;4.28;;;;;;;;;;4957235;28;20038;-88
2024/01/20 14:01:55;;;;;;;4.60;4.40;;;;;;;;;;4951767;28;20027;-87
2024/01/20 14:04:22;;;;;;;4.93;4.72;;;;;;;;;;5001923;28;20037;-88
2024/01/20 14:06:47;;;;;;;4.85;4.65;;;;;;;;;;4988392;28;20038;-90
2024/01/20 14:09:13;;;;;;;4.80;4.60;;;;;;;;;;4979728;28;20106;-89
2024/01/20 14:11:39;;;;;;;4.50;4.30;;;;;;;;;;5001411;28;20126;-89
2024/01/20 14:14:05;;;;;;;4.28;4.07;;;;;;;;;;5016045;28;20213;-89
2024/01/20 14:16:31;;;;;;;4.70;4.50;;;;;;;;;;4966292;28;20102;-88
2024/01/20 14:19:03;;;;;;;4.60;4.40;;;;;;;;;;5016602;28;20096;-88
2024/01/20 14:21:29;;;;;;;4.70;4.50;;;;;;;;;;4977734;28;20038;-88
2024/01/20 14:23:54;;;;;;;5.20;5.00;;;;;;;;;;4981182;28;20705;-89
2024/01/20 14:26:20;;;;;;;4.95;4.75;;;;;;;;;;4974452;28;20625;-89
2024/01/20 14:28:48;;;;;;;5.10;4.90;;;;;;;;;;4954835;28;20042;-87
2024/01/20 14:31:14;;;;;;;4.78;4.57;;;;;;;;;;5002981;28;20662;-87
2024/01/20 14:33:40;;;;;;;4.93;4.72;;;;;;;;;;4981100;28;20081;-87
2024/01/20 14:36:06;;;;;;;4.95;4.75;;;;;;;;;;4947819;28;20069;-87
2024/01/20 14:38:32;;;;;;;5.10;4.90;;;;;;;;;;4979019;28;20101;-88